Udachnyy, Russia
Current Conditions -  °F | °C
As of 1:30 PM on Sunday 23 Nov 2014 (Local Time) from UEEE Reporting Station
Clear Clear  
Wind Chill: -22°   Ceiling: Unl
Heat Index: -22°   Visibility: 6mi
Dew Point: -27°   Wind: 0mph
Humidity: 76%   Direction: NA
Pressure: 30"   Gusts: NA
Location:  66.43°N, 112.4°E
Report Text: UEEE 230430Z 00000MPS CAVOK M30/M33 Q1016 NOSIG RMK QFE75323490150
Loading
Personal Weather Stations






























Interactive Weather Map New forecast layout! Learn more

10-Day Weather Forecast

Advertisements
Track Severe Weather on mobile